createdAt,value
2022-11-18T00:01:19.207Z,12.52
2022-11-18T00:03:46.899Z,11.38
2022-11-18T00:06:16.664Z,11.82
2022-11-18T00:08:44.709Z,10.80
2022-11-18T00:11:37.631Z,11.10
2022-11-18T00:14:22.558Z,11.25
2022-11-18T00:17:01.945Z,11.75
2022-11-18T00:19:33.321Z,10.63
2022-11-18T00:22:01.553Z,9.63
2022-11-18T00:24:29.445Z,10.27
2022-11-18T00:26:56.998Z,11.18
2022-11-18T00:29:28.157Z,10.02
2022-11-18T00:31:56.774Z,9.50
2022-11-18T00:34:25.181Z,11.23
2022-11-18T00:36:52.778Z,11.15
2022-11-18T00:39:21.062Z,10.35
2022-11-18T00:42:08.145Z,10.40
2022-11-18T00:44:35.621Z,9.45
2022-11-18T00:47:03.239Z,8.57
2022-11-18T00:49:30.446Z,6.68
2022-11-18T00:51:58.021Z,6.80
2022-11-18T00:54:25.139Z,6.50
2022-11-18T00:56:52.647Z,5.82
2022-11-18T00:59:20.169Z,5.00
2022-11-18T01:01:49.128Z,5.70
2022-11-18T01:04:16.757Z,5.45
2022-11-18T01:06:44.352Z,5.50
2022-11-18T01:09:11.631Z,6.00
2022-11-18T01:11:57.633Z,5.72
2022-11-18T01:14:26.028Z,6.18
2022-11-18T01:16:55.873Z,6.70
2022-11-18T01:19:24.055Z,7.47
2022-11-18T01:21:51.934Z,6.63
2022-11-18T01:24:19.185Z,6.65
2022-11-18T01:26:46.911Z,6.65
2022-11-18T01:29:14.124Z,7.45
2022-11-18T01:31:55.499Z,6.93
2022-11-18T01:34:29.717Z,7.20
2022-11-18T01:36:58.663Z,7.07
2022-11-18T01:39:26.056Z,6.28
2022-11-18T01:41:53.821Z,5.63
2022-11-18T01:45:00.158Z,6.70
2022-11-18T01:47:31.904Z,6.45
2022-11-18T01:50:00.664Z,8.30
2022-11-18T01:52:29.264Z,7.63
2022-11-18T01:55:00.104Z,6.22
2022-11-18T01:57:29.559Z,6.47
2022-11-18T01:59:59.141Z,7.05
2022-11-18T02:02:27.802Z,7.10
2022-11-18T02:04:56.681Z,6.40
2022-11-18T02:07:25.557Z,6.63
2022-11-18T02:09:53.748Z,6.47
2022-11-18T02:12:21.325Z,5.63
2022-11-18T02:14:49.025Z,6.25
2022-11-18T02:17:51.687Z,6.35
2022-11-18T02:20:31.899Z,6.38
2022-11-18T02:23:17.663Z,7.47
2022-11-18T02:26:21.724Z,6.43
2022-11-18T02:29:21.139Z,6.68
2022-11-18T02:32:11.355Z,6.90
2022-11-18T02:34:44.634Z,6.22
2022-11-18T02:37:45.610Z,6.13
2022-11-18T02:40:40.905Z,6.20
2022-11-18T02:43:18.632Z,6.30
2022-11-18T02:45:51.097Z,6.50
2022-11-18T02:48:20.751Z,6.53
2022-11-18T02:50:50.473Z,6.05
2022-11-18T02:53:20.650Z,6.65
2022-11-18T02:55:49.989Z,6.65
2022-11-18T02:58:20.328Z,5.20
2022-11-18T03:00:59.725Z,6.15
2022-11-18T03:03:28.370Z,6.22
2022-11-18T03:06:16.933Z,6.38
2022-11-18T03:08:50.333Z,6.72
2022-11-18T03:11:22.898Z,6.38
2022-11-18T03:14:13.118Z,5.65
2022-11-18T03:16:56.379Z,6.82
2022-11-18T03:19:35.718Z,6.38
2022-11-18T03:22:36.456Z,5.85
2022-11-18T03:25:13.119Z,5.38
2022-11-18T03:28:03.171Z,6.38
2022-11-18T03:30:35.203Z,6.60
2022-11-18T03:33:08.672Z,6.32
2022-11-18T03:35:38.693Z,5.55
2022-11-18T03:38:13.436Z,5.78
2022-11-18T03:40:46.505Z,5.50
2022-11-18T03:43:19.458Z,5.55
2022-11-18T03:45:50.907Z,6.10
2022-11-18T03:48:22.417Z,5.93
2022-11-18T03:50:56.232Z,5.35
2022-11-18T03:53:27.169Z,6.00
2022-11-18T03:56:02.698Z,5.85
2022-11-18T03:58:33.818Z,6.22
2022-11-18T04:01:32.609Z,6.55
2022-11-18T04:04:00.240Z,6.03
2022-11-18T04:06:32.872Z,6.32
2022-11-18T04:09:06.943Z,6.30
2022-11-18T04:12:00.579Z,6.57
2022-11-18T04:14:28.939Z,6.22
2022-11-18T04:16:56.101Z,5.88
2022-11-18T04:19:23.834Z,5.53
2022-11-18T04:21:51.674Z,6.82
2022-11-18T04:24:19.226Z,6.70
2022-11-18T04:26:46.449Z,6.35
2022-11-18T04:29:13.940Z,5.68
2022-11-18T04:31:41.227Z,6.32
2022-11-18T04:34:08.927Z,5.43
2022-11-18T04:36:36.122Z,5.35
2022-11-18T04:39:03.760Z,6.60
2022-11-18T04:41:49.297Z,7.28
2022-11-18T04:44:16.923Z,6.90
2022-11-18T04:46:44.873Z,7.43
2022-11-18T04:49:14.186Z,6.03
2022-11-18T04:51:42.428Z,6.50
2022-11-18T04:54:10.630Z,7.40
2022-11-18T04:56:38.975Z,5.85
2022-11-18T04:59:07.741Z,6.47
2022-11-18T05:01:35.152Z,5.75
2022-11-18T05:04:04.620Z,6.05
2022-11-18T05:06:32.572Z,6.32
2022-11-18T05:09:01.382Z,6.40
2022-11-18T05:11:48.154Z,5.55
2022-11-18T05:14:15.598Z,7.10
2022-11-18T05:16:43.025Z,9.00
2022-11-18T05:19:10.970Z,7.40
2022-11-18T05:21:38.287Z,9.25
2022-11-18T05:24:06.132Z,8.07
2022-11-18T05:26:33.532Z,7.63
2022-11-18T05:29:01.237Z,9.32
2022-11-18T05:31:28.475Z,6.72
2022-11-18T05:33:56.194Z,6.50
2022-11-18T05:36:23.964Z,6.53
2022-11-18T05:38:51.494Z,6.97
2022-11-18T05:41:38.367Z,8.02
2022-11-18T05:44:06.072Z,7.68
2022-11-18T05:46:33.262Z,7.90
2022-11-18T05:49:00.765Z,7.82
2022-11-18T05:51:28.080Z,8.57
2022-11-18T05:53:56.349Z,8.77
2022-11-18T05:56:29.725Z,9.73
2022-11-18T05:58:57.240Z,8.90
2022-11-18T06:01:37.358Z,8.25
2022-11-18T06:04:11.569Z,7.57
2022-11-18T06:06:38.972Z,7.28
2022-11-18T06:09:08.583Z,7.68
2022-11-18T06:11:47.579Z,7.60
2022-11-18T06:14:28.633Z,7.32
2022-11-18T06:17:02.711Z,6.75
2022-11-18T06:19:31.301Z,6.40
2022-11-18T06:21:59.216Z,6.57
2022-11-18T06:24:26.878Z,6.82
2022-11-18T06:26:54.310Z,7.68
2022-11-18T06:29:27.437Z,6.72
2022-11-18T06:31:55.165Z,7.53
2022-11-18T06:34:22.811Z,7.75
2022-11-18T06:36:50.038Z,6.95
2022-11-18T06:39:17.677Z,6.90
2022-11-18T06:41:47.859Z,7.45
2022-11-18T06:44:15.501Z,7.43
2022-11-18T06:46:58.355Z,9.48
2022-11-18T06:49:27.241Z,7.70
2022-11-18T06:51:55.185Z,6.97
2022-11-18T06:54:22.850Z,8.13
2022-11-18T06:56:50.076Z,7.13
2022-11-18T06:59:23.676Z,7.85
2022-11-18T07:01:53.325Z,8.00
2022-11-18T07:04:21.267Z,6.95
2022-11-18T07:06:48.532Z,7.60
2022-11-18T07:09:16.504Z,6.28
2022-11-18T07:11:43.924Z,6.82
2022-11-18T07:14:12.610Z,6.97
2022-11-18T07:16:39.773Z,5.97
2022-11-18T07:19:12.914Z,6.30
2022-11-18T07:21:40.853Z,6.72
2022-11-18T07:24:09.728Z,8.73
2022-11-18T07:26:36.991Z,7.50
2022-11-18T07:29:04.718Z,8.05
2022-11-18T07:31:32.391Z,7.90
2022-11-18T07:33:59.838Z,7.18
2022-11-18T07:36:35.187Z,8.05
2022-11-18T07:39:07.715Z,7.60
2022-11-18T07:41:35.716Z,6.32
2022-11-18T07:44:05.073Z,7.78
2022-11-18T07:46:37.348Z,7.22
2022-11-18T07:49:08.826Z,7.95
2022-11-18T07:51:38.478Z,7.95
2022-11-18T07:54:08.570Z,8.30
2022-11-18T07:56:36.097Z,8.80
2022-11-18T07:59:04.693Z,7.93
2022-11-18T08:01:32.111Z,6.22
2022-11-18T08:04:07.006Z,6.22
2022-11-18T08:06:35.123Z,5.82
2022-11-18T08:09:04.027Z,5.28
2022-11-18T08:11:31.270Z,5.28
2022-11-18T08:13:58.737Z,4.78
2022-11-18T08:16:26.622Z,4.78
2022-11-18T08:18:54.519Z,5.20
2022-11-18T08:21:23.187Z,5.07
2022-11-18T08:23:56.289Z,4.57
2022-11-18T08:26:25.139Z,5.55
2022-11-18T08:28:53.405Z,6.18
2022-11-18T08:31:26.656Z,6.82
2022-11-18T08:33:58.641Z,6.70
2022-11-18T08:36:28.738Z,6.65
2022-11-18T08:38:58.250Z,7.25
2022-11-18T08:41:33.078Z,5.75
2022-11-18T08:44:01.928Z,7.75
2022-11-18T08:46:30.180Z,6.97
2022-11-18T08:48:58.136Z,6.85
2022-11-18T08:51:25.858Z,5.85
2022-11-18T08:53:53.519Z,6.20
2022-11-18T08:56:22.528Z,7.35
2022-11-18T08:58:50.047Z,7.30
2022-11-18T09:01:17.397Z,7.53
2022-11-18T09:03:45.026Z,8.40
2022-11-18T09:06:18.074Z,6.35
2022-11-18T09:08:45.974Z,6.00
2022-11-18T09:11:25.616Z,4.88
2022-11-18T09:16:46.123Z,5.82
2022-11-18T09:19:45.775Z,6.78
2022-11-18T09:22:07.638Z,6.25
2022-11-18T09:24:35.272Z,6.15
2022-11-18T09:27:05.096Z,6.75
2022-11-18T09:29:32.812Z,6.80
2022-11-18T09:32:02.184Z,6.57
2022-11-18T09:34:30.148Z,6.50
2022-11-18T09:36:57.711Z,7.90
2022-11-18T09:39:25.576Z,8.02
2022-11-18T09:42:12.770Z,7.57
2022-11-18T09:44:58.662Z,6.53
2022-11-18T09:47:31.754Z,7.53
2022-11-18T09:50:20.389Z,8.88
2022-11-18T09:53:06.640Z,7.90
2022-11-18T09:55:38.487Z,7.10
2022-11-18T09:58:06.804Z,8.23
2022-11-18T10:00:34.579Z,7.35
2022-11-18T10:03:07.527Z,7.18
2022-11-18T10:05:53.254Z,6.97
2022-11-18T10:08:20.929Z,7.97
2022-11-18T10:11:10.053Z,8.02
2022-11-18T10:14:05.641Z,8.02
2022-11-18T10:17:10.702Z,8.52
2022-11-18T10:19:47.106Z,8.98
2022-11-18T10:22:26.700Z,7.13
2022-11-18T10:24:56.523Z,7.72
2022-11-18T10:27:27.265Z,8.63
2022-11-18T10:29:57.481Z,8.07
2022-11-18T10:32:24.897Z,10.75
2022-11-18T10:34:55.273Z,14.32
2022-11-18T10:37:45.752Z,11.95
2022-11-18T10:40:26.881Z,13.77
2022-11-18T10:42:54.268Z,15.48
2022-11-18T10:45:21.661Z,29.17
2022-11-18T10:48:07.089Z,12.27
2022-11-18T10:50:40.253Z,12.30
2022-11-18T10:53:27.332Z,9.23
2022-11-18T10:56:06.127Z,8.30
2022-11-18T10:58:37.784Z,8.40
2022-11-18T11:01:07.179Z,8.27
2022-11-18T11:03:37.959Z,8.65
2022-11-18T11:06:33.063Z,8.32
2022-11-18T11:09:10.533Z,6.45
2022-11-18T11:11:54.945Z,5.13
2022-11-18T11:14:23.822Z,7.93
2022-11-18T11:16:59.246Z,8.57
2022-11-18T11:19:55.369Z,7.30
2022-11-18T11:22:23.269Z,7.18
2022-11-18T11:24:59.663Z,7.45
2022-11-18T11:30:50.686Z,6.07
2022-11-18T11:33:39.350Z,6.20
2022-11-18T11:36:14.620Z,7.40
2022-11-18T11:38:59.933Z,6.60
2022-11-18T11:41:39.364Z,7.05
2022-11-18T11:44:40.972Z,7.13
2022-11-18T11:47:49.606Z,6.15
2022-11-18T11:51:03.369Z,5.28
2022-11-18T11:54:23.366Z,6.13
2022-11-18T11:56:59.548Z,5.95
2022-11-18T11:59:55.572Z,5.82
2022-11-18T12:02:23.296Z,5.53
2022-11-18T12:04:54.495Z,6.15
2022-11-18T12:07:39.300Z,6.55
2022-11-18T12:10:27.044Z,6.10
2022-11-18T12:13:20.118Z,5.78
2022-11-18T12:16:06.213Z,6.57
2022-11-18T12:18:40.659Z,5.65
2022-11-18T12:21:08.076Z,6.28
2022-11-18T12:23:35.678Z,6.70
2022-11-18T12:26:10.232Z,7.18
2022-11-18T12:28:45.183Z,6.57
2022-11-18T12:31:18.690Z,5.32
2022-11-18T12:33:52.132Z,6.90
2022-11-18T12:36:40.029Z,7.10
2022-11-18T12:39:25.892Z,5.35
2022-11-18T12:42:16.033Z,5.55
2022-11-18T12:44:49.116Z,5.72
2022-11-18T12:47:37.456Z,5.75
2022-11-18T12:50:14.036Z,6.25
2022-11-18T12:52:41.202Z,6.75
2022-11-18T12:55:38.160Z,6.10
2022-11-18T12:58:22.911Z,5.28
2022-11-18T13:00:53.358Z,6.20
2022-11-18T13:03:25.830Z,7.50
2022-11-18T13:06:01.821Z,8.55
2022-11-18T13:08:29.824Z,9.65
2022-11-18T13:11:27.372Z,7.38
2022-11-18T13:14:15.105Z,5.90
2022-11-18T13:17:02.843Z,7.07
2022-11-18T13:22:18.575Z,5.97
2022-11-18T13:24:48.506Z,6.10
2022-11-18T13:27:28.495Z,5.72
2022-11-18T13:30:16.447Z,5.63
2022-11-18T13:32:46.109Z,5.72
2022-11-18T13:35:17.956Z,6.20
2022-11-18T13:37:50.254Z,6.00
2022-11-18T13:40:39.009Z,6.35
2022-11-18T13:43:09.876Z,6.22
2022-11-18T13:45:39.335Z,5.43
2022-11-18T13:48:12.436Z,5.38
2022-11-18T13:50:51.405Z,5.65
2022-11-18T13:53:29.256Z,5.47
2022-11-18T13:56:35.493Z,5.30
2022-11-18T13:59:20.675Z,4.80
2022-11-18T14:01:55.056Z,5.38
2022-11-18T14:04:25.605Z,4.95
2022-11-18T14:06:53.361Z,5.20
2022-11-18T14:09:28.668Z,6.20
2022-11-18T14:15:20.734Z,11.70
2022-11-18T14:17:59.268Z,11.25
2022-11-18T14:20:29.615Z,10.80
2022-11-18T14:23:01.016Z,8.10
2022-11-18T14:25:34.775Z,7.00
2022-11-18T14:28:16.773Z,6.10
2022-11-18T14:31:00.849Z,6.57
2022-11-18T14:33:29.664Z,7.13
2022-11-18T14:36:01.796Z,7.20
2022-11-18T14:38:48.117Z,8.50
2022-11-18T14:41:44.721Z,6.95
2022-11-18T14:44:13.603Z,7.43
2022-11-18T14:46:43.608Z,6.88
2022-11-18T14:49:16.322Z,7.60
2022-11-18T14:51:44.979Z,6.88
2022-11-18T14:54:14.303Z,9.95
2022-11-18T14:56:42.841Z,11.02
2022-11-18T14:59:17.619Z,14.13
2022-11-18T15:01:46.012Z,9.80
2022-11-18T15:04:17.262Z,11.40
2022-11-18T15:06:44.897Z,8.40
2022-11-18T15:09:12.784Z,8.93
2022-11-18T15:11:40.291Z,8.57
2022-11-18T15:14:07.476Z,8.30
2022-11-18T15:16:35.831Z,12.50
2022-11-18T15:19:06.181Z,10.27
2022-11-18T15:21:34.077Z,28.58
2022-11-18T15:24:01.327Z,21.90
2022-11-18T15:26:35.842Z,16.25
2022-11-18T15:29:03.660Z,9.50
2022-11-18T15:31:31.319Z,7.53
2022-11-18T15:34:03.523Z,6.97
2022-11-18T15:36:34.003Z,6.97
2022-11-18T15:39:01.276Z,6.88
2022-11-18T15:41:30.563Z,6.97
2022-11-18T15:44:00.007Z,6.88
2022-11-18T15:46:30.073Z,8.27
2022-11-18T15:48:59.616Z,8.07
2022-11-18T15:51:29.890Z,7.15
2022-11-18T15:53:58.908Z,7.95
2022-11-18T15:56:30.959Z,7.53
2022-11-18T15:59:08.200Z,8.25
2022-11-18T16:01:44.731Z,8.30
2022-11-18T16:04:15.182Z,8.02
2022-11-18T16:06:46.140Z,8.55
2022-11-18T16:09:14.644Z,8.55
2022-11-18T16:12:01.158Z,10.75
2022-11-18T16:14:28.750Z,15.05
2022-11-18T16:16:56.753Z,19.65
2022-11-18T16:19:26.134Z,19.15
2022-11-18T16:21:57.111Z,19.02
2022-11-18T16:24:28.728Z,18.15
2022-11-18T16:26:56.901Z,16.65
2022-11-18T16:29:24.699Z,15.55
2022-11-18T16:31:54.198Z,17.38
2022-11-18T16:34:22.899Z,18.38
2022-11-18T16:36:55.577Z,19.10
2022-11-18T16:39:26.094Z,16.77
2022-11-18T16:41:56.492Z,16.58
2022-11-18T16:44:24.871Z,18.23
2022-11-18T16:46:54.968Z,18.33
2022-11-18T16:49:27.203Z,17.83
2022-11-18T16:51:56.149Z,16.65
2022-11-18T16:54:25.747Z,17.13
2022-11-18T16:56:55.060Z,14.75
2022-11-18T16:59:24.195Z,15.23
2022-11-18T17:01:53.429Z,18.08
2022-11-18T17:04:21.837Z,17.40
2022-11-18T17:06:49.305Z,18.45
2022-11-18T17:09:22.400Z,19.27
2022-11-18T17:11:51.317Z,18.30
2022-11-18T17:14:19.742Z,17.25
2022-11-18T17:16:47.579Z,17.65
2022-11-18T17:19:19.342Z,19.17
2022-11-18T17:21:47.701Z,17.98
2022-11-18T17:24:17.325Z,19.15
2022-11-18T17:26:46.205Z,20.63
2022-11-18T17:29:14.246Z,16.35
2022-11-18T17:31:42.451Z,14.80
2022-11-18T17:34:14.105Z,16.00
2022-11-18T17:36:42.322Z,14.45
2022-11-18T17:39:11.083Z,15.90
2022-11-18T17:41:57.363Z,18.15
2022-11-18T17:44:24.842Z,18.40
2022-11-18T17:46:52.688Z,22.05
2022-11-18T17:49:21.423Z,21.45
2022-11-18T17:51:51.226Z,18.02
2022-11-18T17:54:20.582Z,16.38
2022-11-18T17:56:49.964Z,16.13
2022-11-18T17:59:17.667Z,16.95
2022-11-18T18:01:47.885Z,15.13
2022-11-18T18:04:20.490Z,10.98
2022-11-18T18:06:52.899Z,10.05
2022-11-18T18:09:28.544Z,8.98
2022-11-18T18:11:59.728Z,9.15
2022-11-18T18:14:26.899Z,9.35
2022-11-18T18:16:54.534Z,10.48
2022-11-18T18:19:23.702Z,10.40
2022-11-18T18:21:51.268Z,10.05
2022-11-18T18:24:21.136Z,10.45
2022-11-18T18:26:49.297Z,11.27
2022-11-18T18:29:16.588Z,11.65
2022-11-18T18:31:44.142Z,11.15
2022-11-18T18:34:11.750Z,10.30
2022-11-18T18:36:39.277Z,11.07
2022-11-18T18:39:06.415Z,10.15
2022-11-18T18:41:34.387Z,10.50
2022-11-18T18:44:01.867Z,10.40
2022-11-18T18:46:30.159Z,11.48
2022-11-18T18:49:11.143Z,11.45
2022-11-18T18:51:40.906Z,12.80
2022-11-18T18:54:11.146Z,17.33
2022-11-18T18:56:38.986Z,15.98
2022-11-18T18:59:06.864Z,14.80
2022-11-18T19:01:35.109Z,13.88
2022-11-18T19:04:04.620Z,15.98
2022-11-18T19:09:27.165Z,10.63
2022-11-18T19:12:13.168Z,9.65
2022-11-18T19:14:40.530Z,10.32
2022-11-18T19:17:12.726Z,9.85
2022-11-18T19:20:12.188Z,8.52
2022-11-18T19:22:39.665Z,10.55
2022-11-18T19:25:07.655Z,8.18
2022-11-18T19:27:38.815Z,10.38
2022-11-18T19:30:07.700Z,10.13
2022-11-18T19:32:36.604Z,9.68
2022-11-18T19:35:05.065Z,9.85
2022-11-18T19:37:32.757Z,10.32
2022-11-18T19:40:08.983Z,10.45
2022-11-18T19:42:39.437Z,11.07
2022-11-18T19:45:07.858Z,10.63
2022-11-18T19:47:35.506Z,9.27
2022-11-18T19:50:02.845Z,9.65
2022-11-18T19:52:30.487Z,10.00
2022-11-18T19:54:58.155Z,11.00
2022-11-18T19:57:25.741Z,9.52
2022-11-18T19:59:52.954Z,9.85
2022-11-18T20:02:20.381Z,14.80
2022-11-18T20:05:07.545Z,16.73
2022-11-18T20:10:02.275Z,16.08
2022-11-18T20:12:29.799Z,20.95
2022-11-18T20:14:56.979Z,17.48
2022-11-18T20:17:24.882Z,20.13
2022-11-18T20:19:52.105Z,15.73
2022-11-18T20:22:19.537Z,16.60
2022-11-18T20:24:46.831Z,17.63
2022-11-18T20:27:18.773Z,18.92
2022-11-18T20:29:46.259Z,21.33
2022-11-18T20:32:13.660Z,19.05
2022-11-18T20:34:41.036Z,14.60
2022-11-18T20:37:08.477Z,15.38
2022-11-18T20:39:35.943Z,17.42
2022-11-18T20:42:21.906Z,61.33
2022-11-18T20:44:49.176Z,18.15
2022-11-18T20:47:16.562Z,21.73
2022-11-18T20:49:46.510Z,17.50
2022-11-18T20:52:14.060Z,18.27
2022-11-18T20:54:41.328Z,19.63
2022-11-18T20:57:08.819Z,22.55
2022-11-18T20:59:36.088Z,20.08
2022-11-18T21:02:03.618Z,22.85
2022-11-18T21:04:30.795Z,20.52
2022-11-18T21:07:01.635Z,23.13
2022-11-18T21:09:32.946Z,24.40
2022-11-18T21:12:00.762Z,24.05
2022-11-18T21:14:28.239Z,24.70
2022-11-18T21:17:06.564Z,24.50
2022-11-18T21:19:34.014Z,22.08
2022-11-18T21:22:01.524Z,24.08
2022-11-18T21:24:34.369Z,21.95
2022-11-18T21:27:03.431Z,20.65
2022-11-18T21:29:32.497Z,19.17
2022-11-18T21:32:03.668Z,23.65
2022-11-18T21:34:31.115Z,22.35
2022-11-18T21:36:58.928Z,25.45
2022-11-18T21:39:27.523Z,22.85
2022-11-18T21:41:57.364Z,26.17
2022-11-18T21:44:28.094Z,22.58
2022-11-18T21:46:56.762Z,21.65
2022-11-18T21:49:23.992Z,22.95
2022-11-18T21:51:51.519Z,24.25
2022-11-18T21:54:18.775Z,22.73
2022-11-18T21:56:46.275Z,25.95
2022-11-18T21:59:13.621Z,27.48
2022-11-18T22:01:41.073Z,27.23
2022-11-18T22:04:08.337Z,23.05
2022-11-18T22:06:35.933Z,23.92
2022-11-18T22:09:04.505Z,26.60
2022-11-18T22:11:32.021Z,27.63
2022-11-18T22:13:59.324Z,23.23
2022-11-18T22:16:27.442Z,23.40
2022-11-18T22:19:01.408Z,26.90
2022-11-18T22:21:32.755Z,27.80
2022-11-18T22:24:01.047Z,27.15
2022-11-18T22:26:29.455Z,22.48
2022-11-18T22:28:58.248Z,22.90
2022-11-18T22:31:27.848Z,26.88
2022-11-18T22:33:56.350Z,18.17
2022-11-18T22:36:26.600Z,19.67
2022-11-18T22:38:54.925Z,17.48
2022-11-18T22:41:45.419Z,18.20
2022-11-18T22:44:14.881Z,19.67
2022-11-18T22:46:43.920Z,22.02
2022-11-18T22:49:12.362Z,21.05
2022-11-18T22:51:40.639Z,21.13
2022-11-18T22:54:38.352Z,22.05
2022-11-18T22:56:55.924Z,22.67
2022-11-18T22:59:24.416Z,23.55
2022-11-18T23:01:52.563Z,25.92
2022-11-18T23:04:19.995Z,25.27
2022-11-18T23:06:48.828Z,25.48
2022-11-18T23:09:16.139Z,25.95
2022-11-18T23:12:02.213Z,20.55
2022-11-18T23:14:29.380Z,19.23
2022-11-18T23:16:57.291Z,20.73
2022-11-18T23:19:24.511Z,19.13
2022-11-18T23:21:52.067Z,17.30
2022-11-18T23:24:19.442Z,16.85
2022-11-18T23:26:47.527Z,15.77
2022-11-18T23:29:15.763Z,14.82
2022-11-18T23:31:44.841Z,16.90
2022-11-18T23:34:14.285Z,14.77
2022-11-18T23:36:42.641Z,17.88
2022-11-18T23:39:10.157Z,17.38
2022-11-18T23:41:37.986Z,15.43
2022-11-18T23:44:06.230Z,12.77
2022-11-18T23:46:34.362Z,15.20
2022-11-18T23:49:01.778Z,13.90
2022-11-18T23:51:29.246Z,14.77
2022-11-18T23:53:57.407Z,15.80
2022-11-18T23:56:26.962Z,17.55
2022-11-18T23:58:55.612Z,20.23
